createdAt,value
2022-10-29T00:01:14.256Z,13.20
2022-10-29T00:03:42.895Z,13.10
2022-10-29T00:06:12.669Z,13.20
2022-10-29T00:08:42.480Z,13.10
2022-10-29T00:11:13.063Z,13.10
2022-10-29T00:13:42.141Z,13.20
2022-10-29T00:16:12.591Z,13.00
2022-10-29T00:18:42.818Z,13.00
2022-10-29T00:21:13.584Z,13.00
2022-10-29T00:23:42.171Z,13.00
2022-10-29T00:26:10.772Z,13.00
2022-10-29T00:28:39.638Z,13.00
2022-10-29T00:31:09.902Z,12.90
2022-10-29T00:33:38.443Z,13.00
2022-10-29T00:36:11.200Z,13.00
2022-10-29T00:38:39.858Z,13.00
2022-10-29T00:41:09.934Z,13.00
2022-10-29T00:43:39.673Z,13.00
2022-10-29T00:46:10.892Z,13.00
2022-10-29T00:48:44.516Z,13.00
2022-10-29T00:51:16.185Z,13.10
2022-10-29T00:53:49.619Z,13.00
2022-10-29T00:56:18.403Z,12.90
2022-10-29T00:58:47.650Z,12.90
2022-10-29T01:01:16.472Z,12.90
2022-10-29T01:03:45.138Z,12.90
2022-10-29T01:06:15.332Z,12.90
2022-10-29T01:08:43.736Z,12.90
2022-10-29T01:11:22.004Z,12.80
2022-10-29T01:14:07.722Z,12.80
2022-10-29T01:16:46.249Z,12.80
2022-10-29T01:19:20.386Z,12.80
2022-10-29T01:21:54.209Z,12.70
2022-10-29T01:25:05.778Z,12.70
2022-10-29T01:27:57.997Z,12.70
2022-10-29T01:30:57.477Z,12.60
2022-10-29T01:33:35.335Z,12.60
2022-10-29T01:36:12.180Z,12.60
2022-10-29T01:38:49.696Z,12.50
2022-10-29T01:41:23.883Z,12.60
2022-10-29T01:43:56.435Z,12.50
2022-10-29T01:46:30.161Z,12.50
2022-10-29T01:49:05.080Z,12.40
2022-10-29T01:51:36.463Z,12.40
2022-10-29T01:54:10.454Z,12.40
2022-10-29T01:56:39.268Z,12.30
2022-10-29T01:59:18.383Z,12.40
2022-10-29T02:02:07.604Z,12.30
2022-10-29T02:05:01.524Z,12.30
2022-10-29T02:07:43.307Z,12.20
2022-10-29T02:10:18.491Z,12.20
2022-10-29T02:12:50.301Z,12.20
2022-10-29T02:15:22.818Z,12.20
2022-10-29T02:17:51.631Z,12.20
2022-10-29T02:20:21.565Z,12.20
2022-10-29T02:22:49.970Z,12.20
2022-10-29T02:25:18.751Z,12.20
2022-10-29T02:27:47.207Z,12.20
2022-10-29T02:30:15.840Z,12.20
2022-10-29T02:32:44.229Z,12.20
2022-10-29T02:35:12.685Z,12.20
2022-10-29T02:37:42.407Z,12.20
2022-10-29T02:40:11.842Z,12.20
2022-10-29T02:42:40.313Z,12.20
2022-10-29T02:45:09.478Z,12.20
2022-10-29T02:47:37.879Z,12.20
2022-10-29T02:50:07.540Z,12.30
2022-10-29T02:52:35.970Z,12.30
2022-10-29T02:55:06.387Z,12.30
2022-10-29T02:57:34.801Z,12.30
2022-10-29T03:00:03.279Z,12.30
2022-10-29T03:02:31.824Z,12.40
2022-10-29T03:05:00.290Z,12.40
2022-10-29T03:07:28.758Z,12.40
2022-10-29T03:09:57.163Z,12.40
2022-10-29T03:12:26.914Z,12.40
2022-10-29T03:14:55.395Z,12.50
2022-10-29T03:17:23.843Z,12.50
2022-10-29T03:19:53.016Z,12.50
2022-10-29T03:22:21.455Z,12.50
2022-10-29T03:24:49.862Z,12.50
2022-10-29T03:27:18.304Z,12.60
2022-10-29T03:29:48.105Z,12.70
2022-10-29T03:32:16.499Z,12.60
2022-10-29T03:34:44.950Z,12.60
2022-10-29T03:37:13.358Z,12.70
2022-10-29T03:39:41.779Z,12.70
2022-10-29T03:42:10.142Z,12.70
2022-10-29T03:44:38.541Z,12.70
2022-10-29T03:47:09.970Z,12.70
2022-10-29T03:49:38.390Z,12.70
2022-10-29T03:52:06.811Z,12.70
2022-10-29T03:54:35.467Z,12.70
2022-10-29T03:57:03.914Z,12.70
2022-10-29T03:59:32.359Z,12.80
2022-10-29T04:02:00.892Z,12.60
2022-10-29T04:04:30.823Z,12.60
2022-10-29T04:06:59.264Z,12.60
2022-10-29T04:09:27.698Z,12.60
2022-10-29T04:11:56.158Z,12.60
2022-10-29T04:14:24.615Z,12.60
2022-10-29T04:16:53.095Z,12.50
2022-10-29T04:19:21.550Z,12.60
2022-10-29T04:28:36.564Z,12.50
2022-10-29T04:30:17.369Z,12.50
2022-10-29T04:32:45.789Z,12.50
2022-10-29T04:35:14.253Z,12.50
2022-10-29T04:37:44.127Z,12.50
2022-10-29T04:40:13.376Z,12.50
2022-10-29T04:42:42.020Z,12.50
2022-10-29T04:45:11.046Z,12.50
2022-10-29T04:47:39.432Z,12.50
2022-10-29T04:50:08.345Z,12.40
2022-10-29T04:52:36.794Z,12.40
2022-10-29T04:55:07.223Z,12.40
2022-10-29T04:57:35.641Z,12.40
2022-10-29T05:00:04.481Z,12.30
2022-10-29T05:02:32.919Z,12.30
2022-10-29T05:05:01.319Z,12.30
2022-10-29T05:07:29.726Z,12.20
2022-10-29T05:09:58.147Z,12.30
2022-10-29T05:12:27.874Z,12.30
2022-10-29T05:14:56.434Z,12.30
2022-10-29T05:17:24.916Z,12.30
2022-10-29T05:19:53.391Z,12.30
2022-10-29T05:22:21.804Z,12.30
2022-10-29T05:24:50.211Z,12.40
2022-10-29T05:27:18.593Z,12.30
2022-10-29T05:29:48.406Z,12.40
2022-10-29T05:32:16.843Z,12.40
2022-10-29T05:34:45.251Z,12.40
2022-10-29T05:37:13.805Z,12.40
2022-10-29T05:39:42.209Z,12.40
2022-10-29T05:42:10.621Z,12.50
2022-10-29T05:44:39.092Z,12.50
2022-10-29T05:47:08.914Z,12.50
2022-10-29T05:49:37.530Z,12.60
2022-10-29T05:52:06.146Z,12.60
2022-10-29T05:54:34.586Z,12.60
2022-10-29T05:57:03.001Z,12.70
2022-10-29T05:59:33.717Z,12.70
2022-10-29T06:02:02.573Z,12.70
2022-10-29T06:04:32.519Z,12.80
2022-10-29T06:07:02.130Z,12.80
2022-10-29T06:09:30.553Z,12.80
2022-10-29T06:11:59.139Z,12.90
2022-10-29T06:14:27.550Z,12.90
2022-10-29T06:16:55.975Z,12.90
2022-10-29T06:19:24.512Z,12.90
2022-10-29T06:21:57.863Z,13.00
2022-10-29T06:24:28.895Z,13.00
2022-10-29T06:26:57.313Z,13.00
2022-10-29T06:29:25.730Z,13.20
2022-10-29T06:31:54.122Z,13.00
2022-10-29T06:34:22.563Z,13.00
2022-10-29T06:36:51.098Z,13.10
2022-10-29T06:39:20.864Z,13.00
2022-10-29T06:41:49.258Z,13.10
2022-10-29T06:44:20.389Z,13.00
2022-10-29T06:46:48.804Z,13.00
2022-10-29T06:49:17.261Z,12.90
2022-10-29T06:51:45.658Z,13.00
2022-10-29T06:54:14.115Z,13.00
2022-10-29T06:56:43.894Z,13.00
2022-10-29T06:59:12.308Z,13.10
2022-10-29T07:01:40.799Z,13.10
2022-10-29T07:04:09.257Z,13.10
2022-10-29T07:06:37.698Z,13.20
2022-10-29T07:09:06.219Z,13.10
2022-10-29T07:11:34.687Z,13.20
2022-10-29T07:14:05.854Z,13.20
2022-10-29T07:16:34.323Z,13.30
2022-10-29T07:19:02.806Z,13.30
2022-10-29T07:21:31.223Z,13.40
2022-10-29T07:23:59.635Z,13.40
2022-10-29T07:26:28.098Z,13.50
2022-10-29T07:28:58.442Z,13.50
2022-10-29T07:31:29.646Z,13.60
2022-10-29T07:33:58.111Z,13.70
2022-10-29T07:36:26.571Z,13.80
2022-10-29T07:38:55.010Z,13.80
2022-10-29T07:41:23.527Z,13.90
2022-10-29T07:43:51.925Z,14.00
2022-10-29T07:46:20.419Z,14.20
2022-10-29T07:48:50.206Z,14.20
2022-10-29T07:51:18.775Z,14.30
2022-10-29T07:53:47.159Z,14.40
2022-10-29T07:56:15.582Z,14.50
2022-10-29T07:58:44.036Z,14.50
2022-10-29T08:01:12.608Z,14.70
2022-10-29T08:03:41.155Z,14.80
2022-10-29T08:06:10.911Z,14.90
2022-10-29T08:08:39.298Z,15.10
2022-10-29T08:11:07.755Z,15.20
2022-10-29T08:13:36.227Z,15.30
2022-10-29T08:16:04.745Z,15.50
2022-10-29T08:18:33.174Z,15.60
2022-10-29T08:21:04.769Z,15.80
2022-10-29T08:23:34.546Z,15.90
2022-10-29T08:26:03.096Z,16.00
2022-10-29T08:28:35.495Z,16.20
2022-10-29T08:31:04.653Z,16.30
2022-10-29T08:33:33.038Z,16.50
2022-10-29T08:36:01.499Z,16.60
2022-10-29T08:38:29.874Z,16.70
2022-10-29T08:41:22.633Z,16.80
2022-10-29T08:44:20.454Z,17.00
2022-10-29T08:46:51.975Z,17.10
2022-10-29T08:49:22.872Z,17.30
2022-10-29T08:51:55.315Z,17.40
2022-10-29T08:54:31.189Z,17.60
2022-10-29T08:57:08.381Z,17.70
2022-10-29T08:59:42.331Z,17.90
2022-10-29T09:02:16.859Z,18.10
2022-10-29T09:04:45.453Z,18.20
2022-10-29T09:07:39.631Z,18.40
2022-10-29T09:10:17.969Z,18.50
2022-10-29T09:13:01.298Z,18.70
2022-10-29T09:15:46.336Z,18.70
2022-10-29T09:18:26.593Z,18.80
2022-10-29T09:21:02.434Z,18.80
2022-10-29T09:23:54.249Z,18.80
2022-10-29T09:26:29.279Z,18.80
2022-10-29T09:29:12.989Z,18.90
2022-10-29T09:31:44.811Z,18.90
2022-10-29T09:34:19.045Z,19.00
2022-10-29T09:36:48.602Z,19.10
2022-10-29T09:39:30.288Z,19.00
2022-10-29T09:42:03.617Z,19.00
2022-10-29T09:44:39.309Z,19.10
2022-10-29T09:47:17.809Z,19.10
2022-10-29T09:50:05.181Z,19.10
2022-10-29T09:52:40.241Z,19.20
2022-10-29T09:55:16.835Z,19.20
2022-10-29T09:57:45.747Z,19.20
2022-10-29T10:00:20.679Z,19.20
2022-10-29T10:02:54.948Z,19.20
2022-10-29T10:05:27.229Z,19.20
2022-10-29T10:08:10.910Z,19.30
2022-10-29T10:10:53.049Z,19.30
2022-10-29T10:13:26.266Z,19.20
2022-10-29T10:15:58.930Z,19.20
2022-10-29T10:18:29.139Z,19.20
2022-10-29T10:21:07.415Z,19.20
2022-10-29T10:23:47.096Z,19.10
2022-10-29T10:26:32.219Z,19.20
2022-10-29T10:29:12.205Z,19.30
2022-10-29T10:31:43.543Z,19.20
2022-10-29T10:34:21.851Z,19.40
2022-10-29T10:36:53.329Z,19.40
2022-10-29T10:39:31.873Z,19.50
2022-10-29T10:42:03.147Z,19.60
2022-10-29T10:44:32.123Z,19.70
2022-10-29T10:47:07.562Z,19.70
2022-10-29T10:49:37.941Z,19.80
2022-10-29T10:52:16.506Z,19.90
2022-10-29T10:54:48.721Z,20.10
2022-10-29T10:57:23.355Z,20.20
2022-10-29T10:59:59.527Z,20.30
2022-10-29T11:02:43.054Z,20.30
2022-10-29T11:05:18.109Z,20.30
2022-10-29T11:07:51.995Z,20.30
2022-10-29T11:10:25.926Z,20.30
2022-10-29T11:12:56.470Z,20.40
2022-10-29T11:15:34.435Z,20.40
2022-10-29T11:18:12.390Z,20.40
2022-10-29T11:20:44.340Z,20.50
2022-10-29T11:23:28.005Z,20.50
2022-10-29T11:26:01.980Z,20.50
2022-10-29T11:28:39.480Z,20.50
2022-10-29T11:31:17.254Z,20.50
2022-10-29T11:33:53.918Z,20.50
2022-10-29T11:36:25.086Z,20.60
2022-10-29T11:38:58.755Z,20.80
2022-10-29T11:41:33.179Z,20.80
2022-10-29T11:44:01.711Z,20.90
2022-10-29T11:46:40.379Z,21.00
2022-10-29T11:49:26.456Z,21.00
2022-10-29T11:52:05.494Z,21.10
2022-10-29T11:55:00.483Z,21.10
2022-10-29T11:57:35.145Z,21.00
2022-10-29T12:00:12.972Z,21.10
2022-10-29T12:02:59.737Z,21.10
2022-10-29T12:05:37.356Z,21.10
2022-10-29T12:08:20.515Z,21.10
2022-10-29T12:10:51.854Z,21.20
2022-10-29T12:13:34.822Z,21.40
2022-10-29T12:16:15.615Z,21.40
2022-10-29T12:18:52.110Z,21.50
2022-10-29T12:21:33.340Z,21.50
2022-10-29T12:24:17.044Z,21.50
2022-10-29T12:26:49.637Z,21.60
2022-10-29T12:29:22.086Z,21.70
2022-10-29T12:31:56.755Z,21.80
2022-10-29T12:34:31.932Z,21.90
2022-10-29T12:37:10.565Z,21.90
2022-10-29T12:39:46.439Z,21.90
2022-10-29T12:42:19.902Z,22.00
2022-10-29T12:45:01.764Z,22.10
2022-10-29T12:47:39.231Z,22.10
2022-10-29T12:50:21.668Z,22.00
2022-10-29T12:52:58.735Z,21.90
2022-10-29T12:55:28.295Z,21.90
2022-10-29T12:57:56.764Z,21.80
2022-10-29T13:00:47.370Z,21.80
2022-10-29T13:03:59.590Z,21.70
2022-10-29T13:06:49.458Z,21.70
2022-10-29T13:09:21.851Z,21.60
2022-10-29T13:11:53.202Z,21.60
2022-10-29T13:14:27.219Z,21.50
2022-10-29T13:16:56.902Z,21.50
2022-10-29T13:19:39.668Z,21.50
2022-10-29T13:22:32.779Z,21.50
2022-10-29T13:25:44.173Z,21.60
2022-10-29T13:28:48.248Z,21.60
2022-10-29T13:31:48.865Z,21.60
2022-10-29T13:34:55.821Z,21.70
2022-10-29T13:37:52.107Z,21.70
2022-10-29T13:40:57.285Z,21.70
2022-10-29T13:43:26.182Z,21.70
2022-10-29T13:46:25.044Z,21.70
2022-10-29T13:48:55.322Z,21.70
2022-10-29T13:51:31.415Z,21.80
2022-10-29T13:54:04.207Z,21.80
2022-10-29T13:56:38.671Z,21.80
2022-10-29T13:59:14.546Z,21.80
2022-10-29T14:01:55.464Z,21.80
2022-10-29T14:04:28.132Z,21.70
2022-10-29T14:06:58.451Z,21.80
2022-10-29T14:09:37.529Z,21.80
2022-10-29T14:12:10.538Z,21.90
2022-10-29T14:14:55.814Z,21.90
2022-10-29T14:17:25.587Z,21.90
2022-10-29T14:19:54.285Z,21.90
2022-10-29T14:22:35.598Z,22.00
2022-10-29T14:25:21.069Z,21.90
2022-10-29T14:28:09.538Z,21.90
2022-10-29T14:30:38.256Z,21.90
2022-10-29T14:33:23.163Z,21.90
2022-10-29T14:35:52.862Z,21.90
2022-10-29T14:38:26.038Z,21.90
2022-10-29T14:40:54.528Z,21.90
2022-10-29T14:43:27.373Z,21.90
2022-10-29T14:45:57.582Z,21.90
2022-10-29T14:48:27.479Z,22.00
2022-10-29T14:50:57.702Z,21.90
2022-10-29T14:53:31.613Z,21.90
2022-10-29T14:56:01.050Z,21.90
2022-10-29T14:58:33.727Z,22.00
2022-10-29T15:01:05.938Z,21.90
2022-10-29T15:03:36.670Z,21.80
2022-10-29T15:06:12.923Z,21.70
2022-10-29T15:08:42.433Z,21.70
2022-10-29T15:11:33.276Z,21.60
2022-10-29T15:14:02.319Z,21.60
2022-10-29T15:16:31.798Z,21.50
2022-10-29T15:19:02.174Z,21.50
2022-10-29T15:21:33.411Z,21.40
2022-10-29T15:24:06.427Z,21.40
2022-10-29T15:26:36.890Z,21.30
2022-10-29T15:29:11.580Z,21.20
2022-10-29T15:31:45.263Z,21.20
2022-10-29T15:34:21.092Z,21.20
2022-10-29T15:36:51.567Z,21.00
2022-10-29T15:39:26.790Z,20.90
2022-10-29T15:41:57.559Z,20.90
2022-10-29T15:45:03.627Z,20.80
2022-10-29T15:47:32.038Z,20.70
2022-10-29T15:50:01.891Z,20.60
2022-10-29T15:52:33.805Z,20.50
2022-10-29T15:55:03.078Z,20.40
2022-10-29T15:57:31.948Z,20.30
2022-10-29T16:00:06.033Z,20.30
2022-10-29T16:02:35.236Z,20.20
2022-10-29T16:05:05.571Z,20.20
2022-10-29T16:07:34.117Z,20.10
2022-10-29T16:10:02.683Z,20.00
2022-10-29T16:12:31.822Z,19.90
2022-10-29T16:15:00.239Z,19.90
2022-10-29T16:17:29.545Z,19.80
2022-10-29T16:19:57.979Z,19.80
2022-10-29T16:22:29.780Z,19.70
2022-10-29T16:24:58.195Z,19.60
2022-10-29T16:27:26.606Z,19.60
2022-10-29T16:29:55.058Z,19.50
2022-10-29T16:32:25.322Z,19.40
2022-10-29T16:34:53.701Z,19.50
2022-10-29T16:37:22.390Z,19.30
2022-10-29T16:39:52.201Z,19.40
2022-10-29T16:42:38.672Z,19.20
2022-10-29T16:45:10.034Z,19.20
2022-10-29T16:47:38.446Z,19.10
2022-10-29T16:50:07.573Z,19.10
2022-10-29T16:52:36.043Z,19.10
2022-10-29T16:55:06.894Z,19.10
2022-10-29T16:57:35.393Z,19.00
2022-10-29T17:00:04.081Z,19.00
2022-10-29T17:02:32.571Z,19.00
2022-10-29T17:05:01.046Z,18.90
2022-10-29T17:07:29.480Z,18.90
2022-10-29T17:09:57.938Z,18.90
2022-10-29T17:12:27.799Z,18.90
2022-10-29T17:14:56.316Z,18.90
2022-10-29T17:17:24.834Z,18.90
2022-10-29T17:19:53.699Z,18.90
2022-10-29T17:22:22.192Z,18.80
2022-10-29T17:24:50.690Z,18.90
2022-10-29T17:27:19.105Z,18.80
2022-10-29T17:29:48.976Z,18.80
2022-10-29T17:32:18.219Z,18.80
2022-10-29T17:34:46.745Z,18.80
2022-10-29T17:37:15.457Z,18.80
2022-10-29T17:39:43.875Z,18.80
2022-10-29T17:42:12.342Z,18.70
2022-10-29T17:44:40.803Z,18.70
2022-10-29T17:47:11.053Z,18.70
2022-10-29T17:49:39.504Z,18.60
2022-10-29T17:52:07.994Z,18.70
2022-10-29T17:54:36.427Z,18.50
2022-10-29T17:57:05.055Z,18.50
2022-10-29T17:59:33.504Z,18.40
2022-10-29T18:02:02.139Z,18.30
2022-10-29T18:04:31.987Z,18.30
2022-10-29T18:07:00.464Z,18.30
2022-10-29T18:09:28.973Z,18.20
2022-10-29T18:11:57.366Z,18.10
2022-10-29T18:14:25.888Z,18.30
2022-10-29T18:16:54.335Z,18.10
2022-10-29T18:19:23.732Z,18.10
2022-10-29T18:21:53.511Z,18.10
2022-10-29T18:24:24.143Z,18.00
2022-10-29T18:26:52.726Z,18.10
2022-10-29T18:29:21.151Z,17.90
2022-10-29T18:31:49.607Z,17.90
2022-10-29T18:34:18.067Z,17.90
2022-10-29T18:36:47.467Z,17.80
2022-10-29T18:39:17.277Z,18.00
2022-10-29T18:41:45.762Z,18.00
2022-10-29T18:44:14.231Z,18.00
2022-10-29T18:46:42.707Z,18.00
2022-10-29T18:49:12.929Z,18.00
2022-10-29T18:51:41.579Z,18.10
2022-10-29T18:54:11.380Z,18.10
2022-10-29T18:56:41.741Z,18.00
2022-10-29T18:59:12.702Z,18.30
2022-10-29T19:01:41.373Z,18.10
2022-10-29T19:04:14.167Z,18.10
2022-10-29T19:06:42.808Z,18.10
2022-10-29T19:09:12.432Z,18.10
2022-10-29T19:11:42.378Z,18.10
2022-10-29T19:14:13.693Z,18.10
2022-10-29T19:16:42.298Z,18.10
2022-10-29T19:19:13.187Z,18.00
2022-10-29T19:21:43.078Z,18.00
2022-10-29T19:24:14.758Z,18.00
2022-10-29T19:26:44.741Z,18.00
2022-10-29T19:29:13.662Z,17.90
2022-10-29T19:31:42.468Z,17.80
2022-10-29T19:34:11.214Z,17.80
2022-10-29T19:36:40.643Z,17.80
2022-10-29T19:39:09.506Z,17.70
2022-10-29T19:41:38.222Z,17.70
2022-10-29T19:44:08.226Z,17.70
2022-10-29T19:46:36.740Z,17.70
2022-10-29T19:49:05.147Z,17.70
2022-10-29T19:51:33.556Z,17.80
2022-10-29T19:54:04.030Z,17.80
2022-10-29T19:56:32.497Z,17.80
2022-10-29T19:59:00.962Z,17.80
2022-10-29T20:01:31.111Z,17.80
2022-10-29T20:03:59.770Z,17.90
2022-10-29T20:06:28.344Z,17.90
2022-10-29T20:08:56.819Z,17.90
2022-10-29T20:11:25.267Z,17.90
2022-10-29T20:13:53.659Z,17.90
2022-10-29T20:16:22.707Z,17.90
2022-10-29T20:18:52.760Z,17.90
2022-10-29T20:21:21.240Z,17.90
2022-10-29T20:23:49.680Z,17.90
2022-10-29T20:26:18.277Z,17.90
2022-10-29T20:28:46.762Z,17.90
2022-10-29T20:31:31.028Z,17.90
2022-10-29T20:34:02.113Z,17.90
2022-10-29T20:36:32.094Z,17.80
2022-10-29T20:39:01.236Z,17.80
2022-10-29T20:41:30.051Z,17.90
2022-10-29T20:44:01.077Z,17.80
2022-10-29T20:46:30.201Z,17.80
2022-10-29T20:48:58.865Z,17.80
2022-10-29T20:51:29.029Z,17.70
2022-10-29T20:53:57.761Z,17.80
2022-10-29T20:56:28.346Z,17.70
2022-10-29T20:58:56.862Z,17.70
2022-10-29T21:01:26.113Z,17.70
2022-10-29T21:03:54.673Z,17.60
2022-10-29T21:06:23.710Z,17.60
2022-10-29T21:08:54.061Z,17.60
2022-10-29T21:11:24.072Z,17.60
2022-10-29T21:13:52.811Z,17.50
2022-10-29T21:16:23.465Z,17.60
2022-10-29T21:18:54.772Z,17.50
2022-10-29T21:21:24.158Z,17.50
2022-10-29T21:23:54.471Z,17.60
2022-10-29T21:26:24.390Z,17.30
2022-10-29T21:28:53.906Z,17.30
2022-10-29T21:31:23.274Z,17.20
2022-10-29T21:33:51.931Z,17.20
2022-10-29T21:36:20.775Z,17.10
2022-10-29T21:38:49.463Z,17.00
2022-10-29T21:41:19.297Z,16.90
2022-10-29T21:43:47.734Z,16.80
2022-10-29T21:46:16.246Z,16.80
2022-10-29T21:48:44.714Z,16.80
2022-10-29T21:51:14.673Z,16.70
2022-10-29T21:53:43.200Z,16.60
2022-10-29T21:56:14.322Z,16.60
2022-10-29T21:58:44.435Z,16.60
2022-10-29T22:01:14.826Z,16.60
2022-10-29T22:03:45.277Z,16.60
2022-10-29T22:06:15.955Z,16.50
2022-10-29T22:08:45.043Z,16.50
2022-10-29T22:11:14.666Z,16.40
2022-10-29T22:13:44.410Z,16.40
2022-10-29T22:16:13.157Z,16.30
2022-10-29T22:18:42.089Z,16.30
2022-10-29T22:21:14.786Z,16.20
2022-10-29T22:23:44.262Z,16.20
2022-10-29T22:26:13.577Z,16.10
2022-10-29T22:28:42.236Z,16.10
2022-10-29T22:31:12.535Z,16.00
2022-10-29T22:33:41.227Z,16.00
2022-10-29T22:36:11.858Z,16.00
2022-10-29T22:38:40.664Z,16.10
2022-10-29T22:41:10.325Z,16.10
2022-10-29T22:43:38.804Z,16.10
2022-10-29T22:46:09.511Z,16.10
2022-10-29T22:48:39.259Z,16.10
2022-10-29T22:51:10.566Z,16.20
2022-10-29T22:53:39.005Z,16.10
2022-10-29T22:56:08.574Z,16.10
2022-10-29T22:58:37.074Z,16.10
2022-10-29T23:01:07.600Z,16.00
2022-10-29T23:03:36.367Z,16.00
2022-10-29T23:06:07.360Z,15.90
2022-10-29T23:08:36.079Z,15.80
2022-10-29T23:11:05.930Z,15.80
2022-10-29T23:13:34.393Z,15.70
2022-10-29T23:16:03.127Z,15.70
2022-10-29T23:18:31.564Z,15.60
2022-10-29T23:21:01.930Z,15.60
2022-10-29T23:23:32.660Z,15.40
2022-10-29T23:26:02.452Z,15.40
2022-10-29T23:28:32.211Z,15.40
2022-10-29T23:31:02.279Z,15.30
2022-10-29T23:33:31.721Z,15.20
2022-10-29T23:36:03.325Z,15.10
2022-10-29T23:38:34.057Z,15.10
2022-10-29T23:41:03.181Z,15.10
2022-10-29T23:43:31.870Z,14.90
2022-10-29T23:46:00.358Z,14.90
2022-10-29T23:48:29.169Z,14.80
2022-10-29T23:50:58.189Z,14.80
2022-10-29T23:53:26.709Z,14.80
2022-10-29T23:55:56.502Z,14.80
2022-10-29T23:58:25.150Z,14.70
